Time;durP1;ratioP1;P1;durP2;ratioP2;P2;SDS_P1;SDS_P2;PMS_P1;PMS_P2;Temp;Humidity;BMP_temperature;BMP_pressure;BME280_temperature;BME280_humidity;BME280_pressure;Samples;Min_cycle;Max_cycle;Signal;HPM_P1;HPM_P2
2021/08/21 00:00:59;;;;;;;5.15;3.10;;;20.50;74.00;;;;;;10332792;28;20112;-54
2021/08/21 00:06:00;;;;;;;4.32;3.15;;;20.50;73.30;;;;;;10331784;28;20058;-55
2021/08/21 00:11:00;;;;;;;4.15;3.47;;;20.50;73.20;;;;;;10332751;28;20113;-54
2021/08/21 00:16:01;;;;;;;4.07;3.15;;;20.50;73.20;;;;;;10332423;28;20110;-55
2021/08/21 00:21:02;;;;;;;3.55;3.25;;;20.50;73.20;;;;;;10344884;28;20036;-56
2021/08/21 00:26:03;;;;;;;3.80;3.50;;;20.50;73.10;;;;;;10340461;28;20030;-54
2021/08/21 00:31:04;;;;;;;3.92;3.53;;;20.50;73.10;;;;;;10339914;28;20489;-55
2021/08/21 00:36:05;;;;;;;5.10;4.10;;;20.50;73.00;;;;;;10338681;28;20103;-54
2021/08/21 00:41:06;;;;;;;4.00;3.30;;;20.50;73.20;;;;;;10339480;28;20124;-55
2021/08/21 00:46:07;;;;;;;3.42;3.03;;;20.40;72.80;;;;;;10339904;28;20060;-55
2021/08/21 00:51:07;;;;;;;3.75;3.00;;;20.40;72.80;;;;;;10339175;28;20041;-55
2021/08/21 00:56:08;;;;;;;3.58;3.08;;;20.40;72.80;;;;;;10338252;28;20114;-55
2021/08/21 01:01:09;;;;;;;3.70;3.15;;;20.40;72.80;;;;;;10339269;28;20105;-55
2021/08/21 01:06:10;;;;;;;4.10;3.38;;;20.40;72.70;;;;;;10337478;28;20026;-55
2021/08/21 01:11:11;;;;;;;3.67;3.13;;;20.40;73.30;;;;;;10338813;28;20402;-55
2021/08/21 01:16:12;;;;;;;3.90;3.20;;;20.50;75.00;;;;;;10337049;28;20554;-55
2021/08/21 01:21:13;;;;;;;4.15;3.28;;;20.50;76.80;;;;;;10346040;28;20494;-55
2021/08/21 01:26:13;;;;;;;4.03;2.97;;;20.50;76.40;;;;;;10338062;28;20081;-55
2021/08/21 01:31:15;;;;;;;4.78;2.97;;;20.50;75.90;;;;;;10336906;28;20088;-54
2021/08/21 01:36:15;;;;;;;4.28;3.50;;;20.50;75.20;;;;;;10336438;28;20026;-54
2021/08/21 01:41:16;;;;;;;3.90;3.50;;;20.50;75.20;;;;;;10337497;28;20578;-55
2021/08/21 01:46:17;;;;;;;4.45;4.00;;;20.50;75.20;;;;;;10337359;28;20145;-55
2021/08/21 01:51:17;;;;;;;4.90;4.03;;;20.50;75.00;;;;;;10337036;28;20042;-53
2021/08/21 01:56:18;;;;;;;4.15;3.75;;;20.50;75.00;;;;;;10354709;28;20021;-54
2021/08/21 02:01:19;;;;;;;3.88;3.25;;;20.50;74.80;;;;;;10350114;28;20175;-55
2021/08/21 02:06:19;;;;;;;4.55;4.03;;;20.50;74.10;;;;;;10377066;28;20034;-54
2021/08/21 02:11:20;;;;;;;4.47;3.83;;;20.50;74.30;;;;;;10376592;28;20065;-53
2021/08/21 02:16:21;;;;;;;4.53;3.70;;;20.40;74.40;;;;;;10376882;28;20057;-55
2021/08/21 02:21:23;;;;;;;5.18;4.35;;;20.40;73.70;;;;;;10338766;28;20038;-54
2021/08/21 02:26:25;;;;;;;4.15;3.75;;;20.40;73.90;;;;;;10335999;28;20022;-55
2021/08/21 02:31:26;;;;;;;5.15;3.80;;;20.40;73.70;;;;;;10335799;28;20026;-54
2021/08/21 02:36:27;;;;;;;4.95;4.00;;;20.40;73.80;;;;;;10335536;28;20487;-55
2021/08/21 02:41:27;;;;;;;4.28;3.65;;;20.40;73.70;;;;;;10334941;28;20088;-55
2021/08/21 02:46:28;;;;;;;4.45;3.67;;;20.40;73.90;;;;;;10334630;28;20069;-54
2021/08/21 02:51:29;;;;;;;4.25;3.20;;;20.40;73.80;;;;;;10334850;28;20463;-55
2021/08/21 02:56:30;;;;;;;5.47;4.07;;;20.40;73.60;;;;;;10334744;28;20110;-55
2021/08/21 03:01:30;;;;;;;4.47;3.50;;;20.40;73.60;;;;;;10334543;28;20105;-54
2021/08/21 03:06:31;;;;;;;4.10;3.47;;;20.40;73.60;;;;;;10334396;28;20034;-55
2021/08/21 03:11:32;;;;;;;4.18;3.58;;;20.40;73.30;;;;;;10334478;28;20058;-55
2021/08/21 03:16:33;;;;;;;7.45;3.80;;;20.40;73.40;;;;;;10333699;28;20427;-54
2021/08/21 03:21:33;;;;;;;3.05;2.70;;;20.40;73.40;;;;;;10342736;28;20105;-54
2021/08/21 03:26:34;;;;;;;4.68;4.07;;;20.30;73.30;;;;;;10333230;28;20030;-55
2021/08/21 03:31:35;;;;;;;4.05;3.38;;;20.30;73.30;;;;;;10333579;28;20022;-55
2021/08/21 03:36:35;;;;;;;4.53;3.85;;;20.40;73.30;;;;;;10333624;28;20467;-54
2021/08/21 03:41:36;;;;;;;3.72;3.03;;;20.30;73.00;;;;;;10332745;28;20504;-55
2021/08/21 03:46:37;;;;;;;4.30;3.85;;;20.40;73.10;;;;;;10333089;28;20146;-55
2021/08/21 03:51:38;;;;;;;4.57;3.58;;;20.30;72.90;;;;;;10333038;28;20030;-55
2021/08/21 03:56:38;;;;;;;4.35;3.13;;;20.30;73.00;;;;;;10342425;28;20506;-55
2021/08/21 04:01:39;;;;;;;4.50;3.50;;;20.30;72.80;;;;;;10346369;28;20091;-55
2021/08/21 04:06:41;;;;;;;3.70;3.13;;;20.30;72.90;;;;;;10346314;28;20065;-54
2021/08/21 04:11:42;;;;;;;4.15;3.60;;;20.30;72.90;;;;;;10346262;28;20030;-54
2021/08/21 04:16:43;;;;;;;4.53;3.72;;;20.30;72.90;;;;;;10344233;28;20034;-55
2021/08/21 04:21:49;;;;;;;4.10;3.50;;;20.30;72.90;;;;;;10358459;28;20497;-55
2021/08/21 04:26:50;;;;;;;4.10;3.70;;;20.30;72.80;;;;;;10361695;28;20037;-55
2021/08/21 04:31:50;;;;;;;4.18;3.75;;;20.30;72.80;;;;;;10368046;28;20435;-55
2021/08/21 04:36:51;;;;;;;3.95;3.33;;;20.30;72.90;;;;;;10370670;28;20675;-54
2021/08/21 04:41:52;;;;;;;4.72;4.10;;;20.30;72.70;;;;;;10357713;28;20057;-53
2021/08/21 04:46:53;;;;;;;4.57;4.00;;;20.20;72.60;;;;;;10371585;28;20502;-55
2021/08/21 04:51:54;;;;;;;5.20;3.75;;;20.30;72.60;;;;;;10375956;28;20065;-55
2021/08/21 04:56:55;;;;;;;4.95;4.30;;;20.20;72.60;;;;;;10379176;28;20470;-55
2021/08/21 05:01:56;;;;;;;5.97;4.60;;;20.20;72.30;;;;;;10364271;28;20072;-54
2021/08/21 05:06:57;;;;;;;4.88;3.97;;;20.30;72.70;;;;;;10340851;28;20027;-55
2021/08/21 05:11:57;;;;;;;4.78;4.20;;;20.20;72.50;;;;;;10366117;28;20026;-54
2021/08/21 05:16:58;;;;;;;5.22;4.20;;;20.20;72.40;;;;;;10365229;28;20065;-55
2021/08/21 05:22:20;;;;;;;5.72;5.07;;;20.20;72.60;;;;;;10348407;28;20034;-55
2021/08/21 05:27:22;;;;;;;6.63;5.43;;;20.20;72.60;;;;;;10344715;28;20100;-56
2021/08/21 05:32:23;;;;;;;5.65;4.70;;;20.20;72.30;;;;;;10336796;28;20155;-55
2021/08/21 05:37:24;;;;;;;9.18;4.57;;;20.20;73.00;;;;;;10337765;28;20116;-56
2021/08/21 05:42:25;;;;;;;7.30;4.55;;;20.30;73.60;;;;;;10337553;28;20055;-56
2021/08/21 05:47:25;;;;;;;6.15;4.05;;;20.30;73.90;;;;;;10337496;28;20097;-56
2021/08/21 05:52:29;;;;;;;9.00;5.50;;;20.30;73.70;;;;;;10337153;28;20506;-56
2021/08/21 05:57:30;;;;;;;8.27;4.85;;;20.40;74.00;;;;;;10335838;28;20042;-56
2021/08/21 06:02:30;;;;;;;12.27;5.68;;;20.40;74.10;;;;;;10336480;28;20106;-56
2021/08/21 06:07:32;;;;;;;19.52;6.90;;;20.40;73.60;;;;;;10336697;28;20566;-56
2021/08/21 06:12:33;;;;;;;8.05;5.07;;;20.40;74.60;;;;;;10336079;28;20147;-55
2021/08/21 06:17:34;;;;;;;15.50;6.40;;;20.40;73.70;;;;;;10336152;28;20153;-55
2021/08/21 06:22:34;;;;;;;15.48;6.75;;;20.30;73.70;;;;;;10367288;28;20466;-57
2021/08/21 06:27:37;;;;;;;18.67;9.48;;;20.30;73.90;;;;;;10363205;28;20156;-55
2021/08/21 06:32:38;;;;;;;13.45;7.43;;;20.40;73.80;;;;;;10376167;28;20040;-54
2021/08/21 06:37:39;;;;;;;12.18;6.95;;;20.40;73.90;;;;;;10374970;28;20372;-56
2021/08/21 06:42:40;;;;;;;20.77;7.25;;;20.30;74.00;;;;;;10375541;28;20049;-54
2021/08/21 06:47:40;;;;;;;14.90;8.27;;;20.30;74.00;;;;;;10361229;28;20110;-57
2021/08/21 06:52:41;;;;;;;13.15;7.75;;;20.30;74.10;;;;;;10369725;28;20423;-55
2021/08/21 06:57:41;;;;;;;9.05;6.93;;;20.30;74.10;;;;;;10375244;28;20053;-54
2021/08/21 07:02:42;;;;;;;9.90;6.75;;;20.30;74.00;;;;;;10360193;28;20117;-52
2021/08/21 07:07:43;;;;;;;14.73;7.30;;;20.30;74.00;;;;;;10350067;28;20070;-51
2021/08/21 07:12:44;;;;;;;11.38;7.35;;;20.30;74.00;;;;;;10351241;28;20046;-52
2021/08/21 07:17:44;;;;;;;14.80;7.80;;;20.30;73.90;;;;;;10344241;28;20126;-49
2021/08/21 07:22:48;;;;;;;10.73;6.90;;;20.30;74.50;;;;;;10330613;28;20443;-49
2021/08/21 07:27:51;;;;;;;14.73;9.10;;;20.30;74.10;;;;;;10334428;28;20476;-53
2021/08/21 07:32:52;;;;;;;10.65;7.32;;;20.30;74.90;;;;;;10333197;28;20038;-50
2021/08/21 07:37:53;;;;;;;10.68;7.10;;;20.30;74.70;;;;;;10329285;28;20371;-48
2021/08/21 07:42:54;;;;;;;7.70;5.45;;;20.40;74.10;;;;;;10333037;28;20149;-48
2021/08/21 07:47:54;;;;;;;12.55;7.63;;;20.40;74.20;;;;;;10340341;28;20531;-54
2021/08/21 07:52:55;;;;;;;11.95;7.35;;;20.40;74.90;;;;;;10348361;28;20065;-50
2021/08/21 07:57:56;;;;;;;14.65;7.35;;;20.30;74.40;;;;;;10347594;28;20030;-50
2021/08/21 08:02:56;;;;;;;11.98;6.55;;;20.30;74.70;;;;;;10358639;28;20125;-47
2021/08/21 08:07:57;;;;;;;8.15;6.80;;;20.40;75.00;;;;;;10370081;28;20026;-49
2021/08/21 08:12:58;;;;;;;12.10;7.18;;;20.40;75.10;;;;;;10368622;28;20041;-48
2021/08/21 08:17:59;;;;;;;7.25;5.95;;;20.30;74.90;;;;;;10358449;28;20073;-48
2021/08/21 08:22:59;;;;;;;10.88;6.60;;;20.30;74.50;;;;;;10329856;28;20414;-47
2021/08/21 08:28:00;;;;;;;8.45;6.93;;;20.30;74.60;;;;;;10331306;28;20045;-48
2021/08/21 08:33:01;;;;;;;10.63;7.75;;;20.30;74.60;;;;;;10331806;28;20030;-47
2021/08/21 08:38:01;;;;;;;8.18;6.15;;;20.30;75.10;;;;;;10330700;28;20382;-48
2021/08/21 08:43:04;;;;;;;9.07;6.82;;;20.30;74.80;;;;;;10336279;28;20065;-48
2021/08/21 08:48:05;;;;;;;10.20;7.05;;;20.30;74.50;;;;;;10339384;28;20065;-49
2021/08/21 08:53:06;;;;;;;9.20;6.47;;;20.30;74.50;;;;;;10338027;28;20042;-47
2021/08/21 08:58:07;;;;;;;6.63;5.45;;;20.30;74.60;;;;;;10339019;28;20030;-48
2021/08/21 09:03:19;;;;;;;7.40;4.95;;;20.30;74.60;;;;;;10338598;28;20380;-47
2021/08/21 09:08:27;;;;;;;9.07;5.50;;;20.30;74.50;;;;;;10337480;28;20034;-47
2021/08/21 09:13:29;;;;;;;5.82;4.88;;;20.30;74.60;;;;;;10338110;28;20050;-47
2021/08/21 09:18:30;;;;;;;6.30;5.65;;;20.30;74.60;;;;;;10341850;28;20109;-48
2021/08/21 09:23:34;;;;;;;6.35;5.22;;;20.40;74.70;;;;;;10337654;28;20026;-49
2021/08/21 09:28:37;;;;;;;6.93;4.50;;;20.40;74.70;;;;;;10336482;28;20034;-47
2021/08/21 09:33:49;;;;;;;6.13;4.75;;;20.40;74.70;;;;;;10337655;28;20143;-47
2021/08/21 09:38:50;;;;;;;6.95;4.18;;;20.40;74.60;;;;;;10337298;28;20467;-48
2021/08/21 09:44:09;;;;;;;5.38;4.32;;;20.40;74.70;;;;;;10349165;28;20124;-48
2021/08/21 09:49:11;;;;;;;;;;;20.50;74.60;;;;;;10337488;28;20054;-47
2021/08/21 09:54:19;;;;;;;5.35;3.80;;;20.50;74.70;;;;;;10336236;28;19913;-47
2021/08/21 09:59:42;;;;;;;7.87;4.13;;;20.50;74.70;;;;;;10363445;28;20034;-47
2021/08/21 10:04:43;;;;;;;5.22;3.72;;;20.60;74.60;;;;;;10376942;28;20030;-48
2021/08/21 10:09:46;;;;;;;5.55;4.65;;;20.60;74.60;;;;;;10375831;28;20026;-47
2021/08/21 10:14:49;;;;;;;6.18;4.25;;;20.60;74.50;;;;;;10375447;28;20153;-47
2021/08/21 10:19:50;;;;;;;5.70;4.13;;;20.60;74.50;;;;;;10349746;28;20026;-47
2021/08/21 10:24:53;;;;;;;5.55;4.13;;;20.60;74.50;;;;;;10335846;28;20053;-48
2021/08/21 10:30:14;;;;;;;7.43;4.65;;;20.70;74.50;;;;;;10334545;28;20039;-48
2021/08/21 10:35:15;;;;;;;5.55;4.18;;;20.70;74.40;;;;;;10335212;28;20033;-47
2021/08/21 10:40:27;;;;;;;5.50;4.15;;;20.70;74.40;;;;;;10334815;28;20081;-47
2021/08/21 10:45:46;;;;;;;3.55;3.25;;;20.70;74.30;;;;;;10334742;28;20475;-48
2021/08/21 10:50:51;;;;;;;5.75;4.43;;;20.80;74.30;;;;;;10334833;28;20113;-48
2021/08/21 10:55:54;;;;;;;4.30;3.28;;;20.80;74.30;;;;;;10333086;28;20026;-46
2021/08/21 11:01:02;;;;;;;4.28;3.67;;;20.80;74.20;;;;;;10334546;28;20045;-47
2021/08/21 11:06:12;;;;;;;6.72;4.13;;;20.90;74.10;;;;;;10333748;28;20038;-48
2021/08/21 11:11:16;;;;;;;4.22;3.83;;;20.90;74.10;;;;;;10334317;28;20037;-50
2021/08/21 11:16:20;;;;;;;4.68;3.40;;;20.90;74.20;;;;;;10333761;28;20033;-47
2021/08/21 11:21:33;;;;;;;5.93;4.03;;;20.90;74.10;;;;;;10335589;28;20037;-51
2021/08/21 11:26:34;;;;;;;3.92;3.53;;;20.90;74.00;;;;;;10332207;28;20097;-47
2021/08/21 11:31:52;;;;;;;4.93;3.65;;;20.90;74.10;;;;;;10332061;28;20423;-48
2021/08/21 11:36:53;;;;;;;4.10;3.28;;;20.90;74.10;;;;;;10362978;28;20032;-49
2021/08/21 11:41:56;;;;;;;5.97;3.63;;;20.90;74.20;;;;;;10373591;28;20532;-48
2021/08/21 11:47:09;;;;;;;3.90;3.33;;;20.90;74.10;;;;;;10373777;28;20034;-48
2021/08/21 11:52:10;;;;;;;4.10;3.70;;;20.90;74.00;;;;;;10373321;28;20108;-48
2021/08/21 11:57:11;;;;;;;4.38;3.13;;;20.90;74.20;;;;;;10342676;28;20516;-47
2021/08/21 12:02:14;;;;;;;3.60;3.08;;;20.90;74.20;;;;;;10372993;28;20029;-47
2021/08/21 12:07:33;;;;;;;3.83;3.45;;;20.90;74.20;;;;;;10371816;28;20022;-48
2021/08/21 12:12:35;;;;;;;4.53;3.27;;;20.90;74.00;;;;;;10373205;28;20069;-48
2021/08/21 12:17:36;;;;;;;4.53;2.92;;;20.90;74.20;;;;;;10371468;28;20073;-47
2021/08/21 12:22:37;;;;;;;3.92;3.42;;;20.90;74.10;;;;;;10340239;28;20165;-48
2021/08/21 12:27:37;;;;;;;4.95;2.88;;;20.90;74.20;;;;;;10339038;28;20395;-49
2021/08/21 12:32:39;;;;;;;5.55;3.72;;;20.90;74.10;;;;;;10338659;28;20395;-47
2021/08/21 12:37:40;;;;;;;3.33;3.03;;;20.90;74.20;;;;;;10339718;28;20030;-48
2021/08/21 12:42:43;;;;;;;4.05;3.40;;;20.80;74.10;;;;;;10339487;28;20526;-47
2021/08/21 12:47:43;;;;;;;5.18;3.08;;;20.90;74.10;;;;;;10339851;28;20068;-48
2021/08/21 12:53:04;;;;;;;3.75;3.03;;;20.90;74.10;;;;;;10337825;28;20035;-47
2021/08/21 12:58:10;;;;;;;3.25;2.83;;;20.90;74.10;;;;;;10338277;28;20022;-48
2021/08/21 13:03:20;;;;;;;4.25;3.50;;;20.90;74.10;;;;;;10339082;28;20030;-50
2021/08/21 13:08:41;;;;;;;4.75;3.72;;;20.90;74.10;;;;;;10338563;28;20060;-48
2021/08/21 13:13:42;;;;;;;3.42;3.05;;;20.80;74.00;;;;;;10337358;28;20038;-48
2021/08/21 13:18:42;;;;;;;4.25;3.50;;;20.80;74.10;;;;;;10340847;28;20058;-47
2021/08/21 13:23:43;;;;;;;3.50;3.20;;;20.90;74.20;;;;;;10337961;28;20065;-47
2021/08/21 13:28:44;;;;;;;4.40;3.25;;;20.90;74.20;;;;;;10337115;28;20058;-47
2021/08/21 13:33:45;;;;;;;3.88;3.08;;;20.90;74.20;;;;;;10337767;28;20109;-47
2021/08/21 13:38:45;;;;;;;3.70;3.28;;;20.90;74.10;;;;;;10337714;28;20451;-47
2021/08/21 13:43:46;;;;;;;4.63;3.67;;;20.90;74.20;;;;;;10337311;28;20054;-48
2021/08/21 13:48:47;;;;;;;3.83;3.15;;;20.90;74.20;;;;;;10337170;28;20647;-47
2021/08/21 13:53:47;;;;;;;3.10;2.65;;;20.90;74.10;;;;;;10336821;28;20030;-49
2021/08/21 13:58:48;;;;;;;3.45;3.15;;;20.90;74.10;;;;;;10336931;28;20084;-47
2021/08/21 14:03:49;;;;;;;2.80;2.55;;;20.90;74.10;;;;;;10336389;28;20117;-47
2021/08/21 14:08:49;;;;;;;3.92;2.72;;;20.90;74.40;;;;;;10336319;28;20081;-48
2021/08/21 14:13:50;;;;;;;4.75;3.13;;;20.90;74.10;;;;;;10336583;28;20467;-47
2021/08/21 14:18:51;;;;;;;3.88;3.25;;;20.90;74.10;;;;;;10337459;28;20054;-47
2021/08/21 14:23:52;;;;;;;3.30;2.97;;;20.90;74.10;;;;;;10335908;28;20049;-48
2021/08/21 14:28:53;;;;;;;4.03;3.55;;;20.90;74.20;;;;;;10335539;28;20048;-48
2021/08/21 14:33:55;;;;;;;4.80;3.13;;;20.90;74.10;;;;;;10334260;28;20109;-48
2021/08/21 14:38:55;;;;;;;3.85;2.97;;;20.90;74.10;;;;;;10335085;28;20049;-47
2021/08/21 14:43:56;;;;;;;4.93;2.97;;;20.90;74.10;;;;;;10346657;28;20048;-51
2021/08/21 14:48:57;;;;;;;4.57;3.17;;;20.90;74.10;;;;;;10334580;28;20072;-47
2021/08/21 14:53:57;;;;;;;4.05;2.85;;;20.90;74.20;;;;;;10334533;28;20085;-47
2021/08/21 14:58:59;;;;;;;3.45;2.80;;;20.90;74.10;;;;;;10334540;28;20526;-48
2021/08/21 15:04:02;;;;;;;3.80;3.15;;;20.90;74.10;;;;;;10334179;28;20047;-47
2021/08/21 15:09:03;;;;;;;3.58;3.08;;;20.90;74.10;;;;;;10333800;28;20487;-46
2021/08/21 15:14:04;;;;;;;6.35;3.15;;;20.90;74.10;;;;;;10333891;28;20038;-47
2021/08/21 15:19:06;;;;;;;2.80;2.45;;;20.90;74.10;;;;;;10335260;28;20014;-48
2021/08/21 15:24:08;;;;;;;3.28;2.75;;;20.90;74.10;;;;;;10332756;28;20509;-47
2021/08/21 15:29:08;;;;;;;3.58;2.97;;;20.90;74.10;;;;;;10333238;28;20034;-48
2021/08/21 15:34:10;;;;;;;2.95;2.40;;;20.90;74.10;;;;;;10333229;28;20156;-47
2021/08/21 15:39:11;;;;;;;3.10;2.58;;;20.90;74.10;;;;;;10333026;28;20106;-47
2021/08/21 15:44:12;;;;;;;2.60;2.40;;;20.90;74.10;;;;;;10332741;28;20153;-47
2021/08/21 15:49:12;;;;;;;3.10;2.55;;;20.90;74.10;;;;;;10332610;28;20037;-47
2021/08/21 15:54:13;;;;;;;3.22;2.90;;;20.90;74.10;;;;;;10332413;28;20041;-47
2021/08/21 15:59:14;;;;;;;4.18;2.92;;;20.90;74.10;;;;;;10332701;28;20065;-47
2021/08/21 16:04:15;;;;;;;4.05;3.45;;;20.90;74.10;;;;;;10332563;28;20026;-47
2021/08/21 16:09:15;;;;;;;3.50;2.90;;;20.90;74.10;;;;;;10331439;28;20037;-47
2021/08/21 16:14:16;;;;;;;5.13;3.15;;;20.90;74.10;;;;;;10330983;28;20038;-51
2021/08/21 16:19:17;;;;;;;4.30;3.28;;;20.90;74.10;;;;;;10334417;28;20026;-47
2021/08/21 16:24:18;;;;;;;3.33;3.00;;;20.90;74.10;;;;;;10332878;28;20113;-48
2021/08/21 16:29:18;;;;;;;4.30;2.95;;;20.90;74.10;;;;;;10330762;28;20030;-49
2021/08/21 16:34:19;;;;;;;4.38;2.95;;;20.90;74.00;;;;;;10330701;28;20042;-48
2021/08/21 16:39:20;;;;;;;3.75;3.45;;;20.90;74.10;;;;;;10331996;28;20026;-48
2021/08/21 16:44:21;;;;;;;4.30;3.22;;;20.90;74.00;;;;;;10331720;28;20522;-48
2021/08/21 16:49:22;;;;;;;4.50;3.67;;;20.90;74.00;;;;;;10330432;28;20426;-48
2021/08/21 16:54:24;;;;;;;4.88;3.67;;;20.90;74.00;;;;;;10331486;28;20110;-48
2021/08/21 16:59:25;;;;;;;4.65;3.78;;;20.90;74.00;;;;;;10331350;28;20031;-47
2021/08/21 17:04:25;;;;;;;6.38;5.18;;;20.90;74.00;;;;;;10336537;28;20076;-47
2021/08/21 17:09:26;;;;;;;5.43;4.43;;;20.90;74.00;;;;;;10338720;28;20061;-48
2021/08/21 17:14:27;;;;;;;6.65;5.70;;;20.90;74.00;;;;;;10337424;28;20057;-51
2021/08/21 17:19:27;;;;;;;5.43;4.28;;;20.90;74.00;;;;;;10341135;28;20050;-48
2021/08/21 17:24:28;;;;;;;5.45;4.63;;;20.90;74.00;;;;;;10338326;28;20033;-46
2021/08/21 17:29:29;;;;;;;7.47;5.05;;;20.90;74.00;;;;;;10373696;28;20099;-51
2021/08/21 17:34:31;;;;;;;5.53;4.93;;;20.90;74.10;;;;;;10376870;28;20097;-48
2021/08/21 17:39:31;;;;;;;4.95;4.35;;;20.90;74.10;;;;;;10377982;28;20061;-48
2021/08/21 17:44:32;;;;;;;4.50;3.75;;;20.90;74.10;;;;;;10378082;28;20100;-48
2021/08/21 17:49:34;;;;;;;6.18;4.85;;;20.90;74.10;;;;;;10377710;28;20482;-46
2021/08/21 17:54:35;;;;;;;5.05;4.18;;;20.90;74.10;;;;;;10346545;28;20030;-48
2021/08/21 17:59:36;;;;;;;5.10;4.55;;;20.90;74.10;;;;;;10377593;28;20046;-48
2021/08/21 18:04:36;;;;;;;6.40;5.80;;;20.90;74.10;;;;;;10377065;28;20030;-46
2021/08/21 18:09:37;;;;;;;4.82;4.30;;;20.90;74.20;;;;;;10376903;28;20030;-49
2021/08/21 18:14:38;;;;;;;5.30;4.75;;;20.90;74.20;;;;;;10376438;28;20065;-47
2021/08/21 18:19:38;;;;;;;5.28;4.78;;;20.90;74.20;;;;;;10352796;28;20133;-48
2021/08/21 18:24:42;;;;;;;5.15;4.60;;;20.90;74.20;;;;;;10334615;28;20105;-49
2021/08/21 18:29:43;;;;;;;6.93;5.28;;;20.90;74.20;;;;;;10331626;28;20083;-49
2021/08/21 18:34:44;;;;;;;5.43;4.88;;;20.90;74.20;;;;;;10335272;28;20491;-47
2021/08/21 18:39:45;;;;;;;6.30;5.25;;;20.90;74.20;;;;;;10333677;28;20510;-47
2021/08/21 18:44:45;;;;;;;5.50;4.97;;;20.90;74.30;;;;;;10333104;28;20414;-49
2021/08/21 18:49:46;;;;;;;6.40;5.13;;;20.90;74.30;;;;;;10335108;28;20042;-49
2021/08/21 18:54:48;;;;;;;5.82;5.20;;;20.90;74.30;;;;;;10334559;28;20034;-48
2021/08/21 18:59:51;;;;;;;7.60;6.15;;;20.90;74.30;;;;;;10317264;28;20382;-48
2021/08/21 19:04:52;;;;;;;5.90;5.30;;;20.90;74.30;;;;;;10334468;28;20061;-48
2021/08/21 19:09:52;;;;;;;5.72;5.13;;;20.90;74.30;;;;;;10333896;28;20041;-51
2021/08/21 19:14:53;;;;;;;6.47;5.55;;;20.90;74.30;;;;;;10333882;28;20078;-50
2021/08/21 19:19:54;;;;;;;6.10;5.28;;;20.90;74.30;;;;;;10335928;28;20477;-50
2021/08/21 19:24:54;;;;;;;6.43;5.20;;;20.90;74.20;;;;;;10332576;28;20487;-48
2021/08/21 19:29:55;;;;;;;5.55;5.03;;;20.90;74.20;;;;;;10333574;28;20123;-47
2021/08/21 19:34:56;;;;;;;6.00;5.10;;;20.90;74.20;;;;;;10332586;28;20037;-47
2021/08/21 19:39:57;;;;;;;6.07;5.22;;;20.90;74.20;;;;;;10331252;28;20085;-48
2021/08/21 19:44:57;;;;;;;5.68;5.13;;;20.90;74.20;;;;;;10332487;28;20525;-47
2021/08/21 19:49:58;;;;;;;5.07;4.53;;;20.90;74.20;;;;;;10332365;28;20034;-48
2021/08/21 19:55:00;;;;;;;6.10;5.50;;;20.90;74.20;;;;;;10344240;28;20406;-47
2021/08/21 20:00:01;;;;;;;5.47;4.68;;;20.90;74.20;;;;;;10332119;28;20378;-49
2021/08/21 20:05:02;;;;;;;5.93;5.35;;;20.90;74.20;;;;;;10330926;28;20109;-47
2021/08/21 20:10:05;;;;;;;4.97;4.13;;;20.90;74.20;;;;;;10331916;28;20126;-47
2021/08/21 20:15:06;;;;;;;6.68;5.03;;;20.90;74.20;;;;;;10331731;28;20129;-49
2021/08/21 20:20:08;;;;;;;5.25;4.75;;;20.90;74.20;;;;;;10334869;28;20461;-47
2021/08/21 20:25:09;;;;;;;5.50;4.82;;;20.90;74.20;;;;;;10331604;28;20034;-47
2021/08/21 20:30:11;;;;;;;5.60;4.82;;;20.90;74.20;;;;;;10331645;28;20117;-48
2021/08/21 20:35:13;;;;;;;5.40;4.88;;;20.90;74.30;;;;;;10331950;28;20430;-47
2021/08/21 20:40:13;;;;;;;5.28;4.70;;;20.90;74.20;;;;;;10339557;28;20042;-47
2021/08/21 20:45:14;;;;;;;5.25;4.75;;;20.90;74.30;;;;;;10339005;28;20034;-47
2021/08/21 20:50:15;;;;;;;6.50;4.85;;;20.90;74.20;;;;;;10338899;28;20034;-47
2021/08/21 20:55:17;;;;;;;6.18;4.75;;;20.90;74.30;;;;;;10338734;28;20121;-47
2021/08/21 21:00:18;;;;;;;5.82;5.25;;;20.90;74.30;;;;;;10350720;28;20022;-48
2021/08/21 21:05:18;;;;;;;5.53;4.93;;;20.90;74.30;;;;;;10338386;28;20121;-47
2021/08/21 21:10:19;;;;;;;5.40;4.90;;;20.90;74.20;;;;;;10338175;28;20034;-48
2021/08/21 21:15:20;;;;;;;5.53;5.00;;;20.90;74.20;;;;;;10337851;28;20110;-50
2021/08/21 21:20:20;;;;;;;5.82;5.10;;;20.90;74.30;;;;;;10359754;28;20087;-46
2021/08/21 21:25:21;;;;;;;5.82;5.22;;;20.90;74.20;;;;;;10365005;28;20113;-47
2021/08/21 21:30:22;;;;;;;5.20;4.50;;;20.90;74.30;;;;;;10378028;28;20470;-49
2021/08/21 21:35:23;;;;;;;6.15;5.55;;;20.90;74.30;;;;;;10376378;28;20116;-48
2021/08/21 21:40:23;;;;;;;5.60;5.10;;;20.90;74.20;;;;;;10377419;28;20108;-49
2021/08/21 21:45:24;;;;;;;6.60;5.90;;;20.90;74.20;;;;;;10377245;28;20054;-48
2021/08/21 21:50:25;;;;;;;6.28;5.40;;;20.90;74.20;;;;;;10376959;28;20080;-48
2021/08/21 21:55:26;;;;;;;6.32;5.72;;;20.90;74.30;;;;;;10376918;28;20398;-49
2021/08/21 22:00:40;;;;;;;5.45;4.93;;;20.90;74.20;;;;;;10377034;28;20034;-48
2021/08/21 22:05:44;;;;;;;5.82;5.22;;;20.90;74.20;;;;;;10376530;28;20502;-48
2021/08/21 22:10:45;;;;;;;6.82;5.85;;;20.90;74.30;;;;;;10376304;28;20041;-48
2021/08/21 22:15:45;;;;;;;5.95;5.45;;;20.90;74.40;;;;;;10376202;28;20398;-48
2021/08/21 22:20:46;;;;;;;5.30;4.80;;;20.90;74.30;;;;;;10343109;28;20109;-48
2021/08/21 22:25:50;;;;;;;6.10;5.45;;;20.90;74.30;;;;;;10335399;28;20455;-48
2021/08/21 22:30:50;;;;;;;7.07;5.78;;;20.90;74.30;;;;;;10333791;28;20117;-47
2021/08/21 22:35:53;;;;;;;6.10;5.40;;;20.90;74.90;;;;;;10334963;28;20424;-50
2021/08/21 22:40:57;;;;;;;5.93;5.32;;;20.90;74.40;;;;;;10334631;28;20074;-49
2021/08/21 22:45:58;;;;;;;6.30;5.60;;;20.90;74.30;;;;;;10359483;28;20031;-47
2021/08/21 22:50:59;;;;;;;6.93;5.47;;;20.90;74.40;;;;;;10334365;28;20502;-47
2021/08/21 22:56:01;;;;;;;5.75;5.25;;;20.90;74.40;;;;;;10334118;28;20502;-48
2021/08/21 23:01:02;;;;;;;6.18;5.60;;;20.90;74.50;;;;;;10333036;28;20033;-47
2021/08/21 23:06:02;;;;;;;6.32;5.35;;;20.90;74.50;;;;;;10333932;28;20041;-48
2021/08/21 23:11:05;;;;;;;6.07;5.53;;;20.90;74.50;;;;;;10333399;28;20031;-47
2021/08/21 23:16:06;;;;;;;7.32;6.63;;;20.90;74.50;;;;;;10333448;28;20468;-46
2021/08/21 23:21:08;;;;;;;5.68;5.18;;;20.90;74.50;;;;;;10336303;28;20036;-47
2021/08/21 23:26:08;;;;;;;7.35;6.20;;;20.90;74.40;;;;;;10333126;28;20022;-47
2021/08/21 23:31:09;;;;;;;6.18;5.57;;;20.90;74.40;;;;;;10332958;28;20034;-47
2021/08/21 23:36:11;;;;;;;6.85;6.15;;;20.90;74.50;;;;;;10332709;28;20387;-48
2021/08/21 23:41:11;;;;;;;7.10;6.40;;;20.90;74.50;;;;;;10332567;28;20055;-47
2021/08/21 23:46:13;;;;;;;6.75;6.07;;;20.90;74.50;;;;;;10332555;28;20038;-49
2021/08/21 23:51:23;;;;;;;6.72;5.78;;;20.90;74.50;;;;;;10332246;28;20031;-50
2021/08/21 23:56:24;;;;;;;6.88;5.82;;;20.90;74.50;;;;;;10332837;28;20387;-48
